sensor_id;sensor_type;location;lat;lon;timestamp;P1;durP1;ratioP1;P2;durP2;ratioP2
16246;SDS011;8231;50.866;7.944;2022-11-20T00:01:04;13.57;;;11.37;;
16246;SDS011;8231;50.866;7.944;2022-11-20T00:03:33;16.10;;;12.53;;
16246;SDS011;8231;50.866;7.944;2022-11-20T00:06:01;15.93;;;12.20;;
16246;SDS011;8231;50.866;7.944;2022-11-20T00:08:31;14.87;;;12.80;;
16246;SDS011;8231;50.866;7.944;2022-11-20T00:11:01;15.03;;;12.47;;
16246;SDS011;8231;50.866;7.944;2022-11-20T00:13:30;14.03;;;12.30;;
16246;SDS011;8231;50.866;7.944;2022-11-20T00:15:59;14.30;;;12.27;;
16246;SDS011;8231;50.866;7.944;2022-11-20T00:18:28;13.60;;;11.73;;
16246;SDS011;8231;50.866;7.944;2022-11-20T00:21:00;14.13;;;11.53;;
16246;SDS011;8231;50.866;7.944;2022-11-20T00:23:30;13.80;;;11.67;;
16246;SDS011;8231;50.866;7.944;2022-11-20T00:26:01;15.73;;;12.07;;
16246;SDS011;8231;50.866;7.944;2022-11-20T00:28:30;13.33;;;11.57;;
16246;SDS011;8231;50.866;7.944;2022-11-20T00:31:02;14.63;;;12.17;;
16246;SDS011;8231;50.866;7.944;2022-11-20T00:33:31;13.43;;;11.93;;
16246;SDS011;8231;50.866;7.944;2022-11-20T00:36:00;14.37;;;12.10;;
16246;SDS011;8231;50.866;7.944;2022-11-20T00:38:29;13.63;;;11.43;;
16246;SDS011;8231;50.866;7.944;2022-11-20T00:40:58;13.40;;;12.10;;
16246;SDS011;8231;50.866;7.944;2022-11-20T00:43:27;14.77;;;12.57;;
16246;SDS011;8231;50.866;7.944;2022-11-20T00:45:56;14.63;;;12.30;;
16246;SDS011;8231;50.866;7.944;2022-11-20T00:48:24;14.30;;;12.07;;
16246;SDS011;8231;50.866;7.944;2022-11-20T00:50:53;14.40;;;12.37;;
16246;SDS011;8231;50.866;7.944;2022-11-20T00:53:21;14.20;;;11.73;;
16246;SDS011;8231;50.866;7.944;2022-11-20T00:55:55;15.97;;;13.10;;
16246;SDS011;8231;50.866;7.944;2022-11-20T00:58:24;14.43;;;11.53;;
16246;SDS011;8231;50.866;7.944;2022-11-20T01:00:59;15.97;;;13.77;;
16246;SDS011;8231;50.866;7.944;2022-11-20T01:03:30;13.33;;;11.93;;
16246;SDS011;8231;50.866;7.944;2022-11-20T01:06:00;12.93;;;11.53;;
16246;SDS011;8231;50.866;7.944;2022-11-20T01:08:29;13.10;;;11.70;;
16246;SDS011;8231;50.866;7.944;2022-11-20T01:11:00;15.70;;;12.57;;
16246;SDS011;8231;50.866;7.944;2022-11-20T01:13:29;17.30;;;12.67;;
16246;SDS011;8231;50.866;7.944;2022-11-20T01:16:08;14.67;;;12.43;;
16246;SDS011;8231;50.866;7.944;2022-11-20T01:18:37;14.80;;;11.73;;
16246;SDS011;8231;50.866;7.944;2022-11-20T01:21:07;15.10;;;11.67;;
16246;SDS011;8231;50.866;7.944;2022-11-20T01:23:37;13.90;;;11.60;;
16246;SDS011;8231;50.866;7.944;2022-11-20T01:26:08;15.57;;;12.33;;
16246;SDS011;8231;50.866;7.944;2022-11-20T01:28:37;13.17;;;11.77;;
16246;SDS011;8231;50.866;7.944;2022-11-20T01:31:10;13.90;;;11.73;;
16246;SDS011;8231;50.866;7.944;2022-11-20T01:33:40;14.03;;;12.53;;
16246;SDS011;8231;50.866;7.944;2022-11-20T01:36:09;15.13;;;13.00;;
16246;SDS011;8231;50.866;7.944;2022-11-20T01:38:38;16.17;;;12.90;;
16246;SDS011;8231;50.866;7.944;2022-11-20T01:41:08;15.30;;;12.27;;
16246;SDS011;8231;50.866;7.944;2022-11-20T01:43:37;15.67;;;12.33;;
16246;SDS011;8231;50.866;7.944;2022-11-20T01:46:06;13.57;;;11.90;;
16246;SDS011;8231;50.866;7.944;2022-11-20T01:48:43;13.53;;;11.90;;
16246;SDS011;8231;50.866;7.944;2022-11-20T01:51:18;14.97;;;12.00;;
16246;SDS011;8231;50.866;7.944;2022-11-20T01:53:50;16.50;;;12.73;;
16246;SDS011;8231;50.866;7.944;2022-11-20T01:56:22;14.57;;;12.50;;
16246;SDS011;8231;50.866;7.944;2022-11-20T01:58:51;14.20;;;12.70;;
16246;SDS011;8231;50.866;7.944;2022-11-20T02:01:24;13.83;;;11.93;;
16246;SDS011;8231;50.866;7.944;2022-11-20T02:03:52;16.37;;;13.17;;
16246;SDS011;8231;50.866;7.944;2022-11-20T02:06:22;14.70;;;12.50;;
16246;SDS011;8231;50.866;7.944;2022-11-20T02:08:52;13.57;;;12.17;;
16246;SDS011;8231;50.866;7.944;2022-11-20T02:11:23;14.27;;;11.60;;
16246;SDS011;8231;50.866;7.944;2022-11-20T02:13:51;15.40;;;11.87;;
16246;SDS011;8231;50.866;7.944;2022-11-20T02:16:20;15.27;;;11.87;;
16246;SDS011;8231;50.866;7.944;2022-11-20T02:18:51;14.47;;;11.60;;
16246;SDS011;8231;50.866;7.944;2022-11-20T02:21:23;16.93;;;12.50;;
16246;SDS011;8231;50.866;7.944;2022-11-20T02:23:59;13.40;;;12.00;;
16246;SDS011;8231;50.866;7.944;2022-11-20T02:26:34;15.20;;;12.73;;
16246;SDS011;8231;50.866;7.944;2022-11-20T02:29:36;15.80;;;13.30;;
16246;SDS011;8231;50.866;7.944;2022-11-20T02:32:17;15.80;;;12.83;;
16246;SDS011;8231;50.866;7.944;2022-11-20T02:34:46;16.90;;;13.13;;
16246;SDS011;8231;50.866;7.944;2022-11-20T02:37:14;17.77;;;12.57;;
16246;SDS011;8231;50.866;7.944;2022-11-20T02:39:45;13.83;;;11.57;;
16246;SDS011;8231;50.866;7.944;2022-11-20T02:42:15;16.70;;;12.73;;
16246;SDS011;8231;50.866;7.944;2022-11-20T02:44:43;13.43;;;11.53;;
16246;SDS011;8231;50.866;7.944;2022-11-20T02:47:11;17.47;;;12.97;;
16246;SDS011;8231;50.866;7.944;2022-11-20T02:49:39;16.30;;;12.53;;
16246;SDS011;8231;50.866;7.944;2022-11-20T02:52:07;14.10;;;12.60;;
16246;SDS011;8231;50.866;7.944;2022-11-20T02:54:35;15.10;;;13.47;;
16246;SDS011;8231;50.866;7.944;2022-11-20T02:57:05;15.70;;;13.17;;
16246;SDS011;8231;50.866;7.944;2022-11-20T02:59:33;14.27;;;12.70;;
16246;SDS011;8231;50.866;7.944;2022-11-20T03:02:01;16.37;;;13.40;;
16246;SDS011;8231;50.866;7.944;2022-11-20T03:04:31;14.83;;;12.07;;
16246;SDS011;8231;50.866;7.944;2022-11-20T03:06:59;16.20;;;13.87;;
16246;SDS011;8231;50.866;7.944;2022-11-20T03:09:28;17.70;;;14.03;;
16246;SDS011;8231;50.866;7.944;2022-11-20T03:11:56;14.83;;;12.60;;
16246;SDS011;8231;50.866;7.944;2022-11-20T03:14:25;20.47;;;14.30;;
16246;SDS011;8231;50.866;7.944;2022-11-20T03:16:53;15.40;;;12.47;;
16246;SDS011;8231;50.866;7.944;2022-11-20T03:19:22;16.40;;;13.07;;
16246;SDS011;8231;50.866;7.944;2022-11-20T03:21:51;15.17;;;13.10;;
16246;SDS011;8231;50.866;7.944;2022-11-20T03:24:19;18.37;;;14.90;;
16246;SDS011;8231;50.866;7.944;2022-11-20T03:26:47;14.77;;;12.77;;
16246;SDS011;8231;50.866;7.944;2022-11-20T03:29:15;17.80;;;12.87;;
16246;SDS011;8231;50.866;7.944;2022-11-20T03:31:45;15.80;;;13.13;;
16246;SDS011;8231;50.866;7.944;2022-11-20T03:34:13;16.90;;;12.90;;
16246;SDS011;8231;50.866;7.944;2022-11-20T03:36:41;16.00;;;13.60;;
16246;SDS011;8231;50.866;7.944;2022-11-20T03:39:10;16.93;;;14.13;;
16246;SDS011;8231;50.866;7.944;2022-11-20T03:41:39;18.33;;;12.83;;
16246;SDS011;8231;50.866;7.944;2022-11-20T03:44:09;17.63;;;14.27;;
16246;SDS011;8231;50.866;7.944;2022-11-20T03:46:38;18.53;;;13.40;;
16246;SDS011;8231;50.866;7.944;2022-11-20T03:49:07;15.47;;;13.27;;
16246;SDS011;8231;50.866;7.944;2022-11-20T03:51:35;18.17;;;14.20;;
16246;SDS011;8231;50.866;7.944;2022-11-20T03:54:05;19.10;;;13.87;;
16246;SDS011;8231;50.866;7.944;2022-11-20T03:56:35;18.43;;;14.00;;
16246;SDS011;8231;50.866;7.944;2022-11-20T03:59:04;16.87;;;13.53;;
16246;SDS011;8231;50.866;7.944;2022-11-20T04:01:34;20.70;;;15.67;;
16246;SDS011;8231;50.866;7.944;2022-11-20T04:04:04;17.10;;;14.57;;
16246;SDS011;8231;50.866;7.944;2022-11-20T04:06:35;17.50;;;14.17;;
16246;SDS011;8231;50.866;7.944;2022-11-20T04:09:05;18.47;;;14.87;;
16246;SDS011;8231;50.866;7.944;2022-11-20T04:11:34;18.67;;;14.60;;
16246;SDS011;8231;50.866;7.944;2022-11-20T04:14:04;19.40;;;14.90;;
16246;SDS011;8231;50.866;7.944;2022-11-20T04:16:34;17.27;;;14.13;;
16246;SDS011;8231;50.866;7.944;2022-11-20T04:19:03;19.03;;;14.13;;
16246;SDS011;8231;50.866;7.944;2022-11-20T04:21:32;18.70;;;14.77;;
16246;SDS011;8231;50.866;7.944;2022-11-20T04:24:02;18.07;;;13.93;;
16246;SDS011;8231;50.866;7.944;2022-11-20T04:26:31;19.20;;;15.07;;
16246;SDS011;8231;50.866;7.944;2022-11-20T04:28:59;17.70;;;14.77;;
16246;SDS011;8231;50.866;7.944;2022-11-20T04:31:28;19.23;;;14.50;;
16246;SDS011;8231;50.866;7.944;2022-11-20T04:33:58;20.90;;;16.17;;
16246;SDS011;8231;50.866;7.944;2022-11-20T04:36:27;20.93;;;15.60;;
16246;SDS011;8231;50.866;7.944;2022-11-20T04:38:58;19.87;;;15.17;;
16246;SDS011;8231;50.866;7.944;2022-11-20T04:41:28;19.17;;;15.13;;
16246;SDS011;8231;50.866;7.944;2022-11-20T04:43:59;19.10;;;14.53;;
16246;SDS011;8231;50.866;7.944;2022-11-20T04:46:30;20.23;;;15.97;;
16246;SDS011;8231;50.866;7.944;2022-11-20T04:48:59;20.50;;;14.83;;
16246;SDS011;8231;50.866;7.944;2022-11-20T04:51:28;21.30;;;15.80;;
16246;SDS011;8231;50.866;7.944;2022-11-20T04:53:57;19.13;;;15.97;;
16246;SDS011;8231;50.866;7.944;2022-11-20T04:56:26;22.43;;;16.10;;
16246;SDS011;8231;50.866;7.944;2022-11-20T04:58:54;19.83;;;15.80;;
16246;SDS011;8231;50.866;7.944;2022-11-20T05:01:23;20.47;;;15.57;;
16246;SDS011;8231;50.866;7.944;2022-11-20T05:03:51;21.53;;;16.20;;
16246;SDS011;8231;50.866;7.944;2022-11-20T05:06:20;20.17;;;15.83;;
16246;SDS011;8231;50.866;7.944;2022-11-20T05:08:48;21.87;;;16.13;;
16246;SDS011;8231;50.866;7.944;2022-11-20T05:11:19;21.60;;;16.03;;
16246;SDS011;8231;50.866;7.944;2022-11-20T05:13:48;23.87;;;16.07;;
16246;SDS011;8231;50.866;7.944;2022-11-20T05:16:18;21.37;;;15.67;;
16246;SDS011;8231;50.866;7.944;2022-11-20T05:18:47;22.93;;;17.47;;
16246;SDS011;8231;50.866;7.944;2022-11-20T05:21:16;20.10;;;16.15;;
16246;SDS011;8231;50.866;7.944;2022-11-20T05:23:45;22.67;;;17.50;;
16246;SDS011;8231;50.866;7.944;2022-11-20T05:26:14;22.50;;;16.30;;
16246;SDS011;8231;50.866;7.944;2022-11-20T05:28:45;22.93;;;17.13;;
16246;SDS011;8231;50.866;7.944;2022-11-20T05:31:13;20.33;;;16.43;;
16246;SDS011;8231;50.866;7.944;2022-11-20T05:33:50;23.63;;;17.17;;
16246;SDS011;8231;50.866;7.944;2022-11-20T05:36:18;21.03;;;16.27;;
16246;SDS011;8231;50.866;7.944;2022-11-20T05:38:47;24.13;;;17.70;;
16246;SDS011;8231;50.866;7.944;2022-11-20T05:41:17;25.83;;;19.03;;
16246;SDS011;8231;50.866;7.944;2022-11-20T05:43:49;25.13;;;18.50;;
16246;SDS011;8231;50.866;7.944;2022-11-20T05:46:18;22.73;;;17.77;;
16246;SDS011;8231;50.866;7.944;2022-11-20T05:48:54;24.73;;;17.63;;
16246;SDS011;8231;50.866;7.944;2022-11-20T05:51:24;23.37;;;17.87;;
16246;SDS011;8231;50.866;7.944;2022-11-20T05:53:53;22.50;;;17.70;;
16246;SDS011;8231;50.866;7.944;2022-11-20T05:56:23;23.80;;;18.57;;
16246;SDS011;8231;50.866;7.944;2022-11-20T05:58:52;26.03;;;18.83;;
16246;SDS011;8231;50.866;7.944;2022-11-20T06:01:21;22.90;;;17.67;;
16246;SDS011;8231;50.866;7.944;2022-11-20T06:03:50;26.23;;;19.40;;
16246;SDS011;8231;50.866;7.944;2022-11-20T06:06:20;30.60;;;20.83;;
16246;SDS011;8231;50.866;7.944;2022-11-20T06:08:48;26.67;;;19.67;;
16246;SDS011;8231;50.866;7.944;2022-11-20T06:11:16;27.60;;;19.93;;
16246;SDS011;8231;50.866;7.944;2022-11-20T06:13:45;28.03;;;20.47;;
16246;SDS011;8231;50.866;7.944;2022-11-20T06:16:16;24.60;;;18.73;;
16246;SDS011;8231;50.866;7.944;2022-11-20T06:18:45;29.80;;;19.97;;
16246;SDS011;8231;50.866;7.944;2022-11-20T06:21:14;30.47;;;20.60;;
16246;SDS011;8231;50.866;7.944;2022-11-20T06:23:44;32.57;;;22.30;;
16246;SDS011;8231;50.866;7.944;2022-11-20T06:26:13;31.93;;;21.50;;
16246;SDS011;8231;50.866;7.944;2022-11-20T06:28:43;32.63;;;22.50;;
16246;SDS011;8231;50.866;7.944;2022-11-20T06:31:12;31.27;;;21.97;;
16246;SDS011;8231;50.866;7.944;2022-11-20T06:33:43;31.33;;;22.90;;
16246;SDS011;8231;50.866;7.944;2022-11-20T06:36:12;29.33;;;20.60;;
16246;SDS011;8231;50.866;7.944;2022-11-20T06:38:42;35.93;;;24.07;;
16246;SDS011;8231;50.866;7.944;2022-11-20T06:41:11;38.80;;;23.67;;
16246;SDS011;8231;50.866;7.944;2022-11-20T06:43:40;35.30;;;22.57;;
16246;SDS011;8231;50.866;7.944;2022-11-20T06:46:09;38.27;;;23.27;;
16246;SDS011;8231;50.866;7.944;2022-11-20T06:48:39;31.30;;;22.43;;
16246;SDS011;8231;50.866;7.944;2022-11-20T06:51:08;37.40;;;23.20;;
16246;SDS011;8231;50.866;7.944;2022-11-20T06:53:36;37.23;;;20.97;;
16246;SDS011;8231;50.866;7.944;2022-11-20T06:56:05;36.83;;;22.40;;
16246;SDS011;8231;50.866;7.944;2022-11-20T06:58:34;36.43;;;23.00;;
16246;SDS011;8231;50.866;7.944;2022-11-20T07:01:04;38.47;;;23.03;;
16246;SDS011;8231;50.866;7.944;2022-11-20T07:03:33;36.73;;;23.77;;
16246;SDS011;8231;50.866;7.944;2022-11-20T07:06:03;35.73;;;23.73;;
16246;SDS011;8231;50.866;7.944;2022-11-20T07:08:32;36.93;;;23.67;;
16246;SDS011;8231;50.866;7.944;2022-11-20T07:11:01;35.57;;;23.37;;
16246;SDS011;8231;50.866;7.944;2022-11-20T07:13:32;39.83;;;24.30;;
16246;SDS011;8231;50.866;7.944;2022-11-20T07:16:00;35.57;;;23.03;;
16246;SDS011;8231;50.866;7.944;2022-11-20T07:18:29;34.43;;;23.30;;
16246;SDS011;8231;50.866;7.944;2022-11-20T07:20:59;43.50;;;24.47;;
16246;SDS011;8231;50.866;7.944;2022-11-20T07:23:29;42.07;;;25.80;;
16246;SDS011;8231;50.866;7.944;2022-11-20T07:25:57;45.60;;;26.77;;
16246;SDS011;8231;50.866;7.944;2022-11-20T07:28:29;37.57;;;23.77;;
16246;SDS011;8231;50.866;7.944;2022-11-20T07:30:57;38.80;;;24.77;;
16246;SDS011;8231;50.866;7.944;2022-11-20T07:33:25;41.80;;;24.57;;
16246;SDS011;8231;50.866;7.944;2022-11-20T07:35:54;40.90;;;25.40;;
16246;SDS011;8231;50.866;7.944;2022-11-20T07:38:22;33.73;;;22.77;;
16246;SDS011;8231;50.866;7.944;2022-11-20T07:40:54;39.70;;;24.70;;
16246;SDS011;8231;50.866;7.944;2022-11-20T07:43:23;50.50;;;27.07;;
16246;SDS011;8231;50.866;7.944;2022-11-20T07:45:54;43.40;;;25.27;;
16246;SDS011;8231;50.866;7.944;2022-11-20T07:48:22;41.50;;;24.40;;
16246;SDS011;8231;50.866;7.944;2022-11-20T07:50:52;37.03;;;22.20;;
16246;SDS011;8231;50.866;7.944;2022-11-20T07:53:21;41.23;;;23.73;;
16246;SDS011;8231;50.866;7.944;2022-11-20T07:55:53;42.40;;;23.13;;
16246;SDS011;8231;50.866;7.944;2022-11-20T07:58:21;45.73;;;25.43;;
16246;SDS011;8231;50.866;7.944;2022-11-20T08:00:49;45.50;;;26.90;;
16246;SDS011;8231;50.866;7.944;2022-11-20T08:03:18;46.70;;;27.70;;
16246;SDS011;8231;50.866;7.944;2022-11-20T08:05:51;45.53;;;25.77;;
16246;SDS011;8231;50.866;7.944;2022-11-20T08:08:19;43.37;;;25.03;;
16246;SDS011;8231;50.866;7.944;2022-11-20T08:10:47;34.73;;;23.17;;
16246;SDS011;8231;50.866;7.944;2022-11-20T08:13:17;38.67;;;23.57;;
16246;SDS011;8231;50.866;7.944;2022-11-20T08:16:02;35.93;;;22.77;;
16246;SDS011;8231;50.866;7.944;2022-11-20T08:18:31;43.73;;;24.27;;
16246;SDS011;8231;50.866;7.944;2022-11-20T08:21:01;37.57;;;24.20;;
16246;SDS011;8231;50.866;7.944;2022-11-20T08:23:30;36.87;;;23.07;;
16246;SDS011;8231;50.866;7.944;2022-11-20T08:25:59;26.23;;;14.07;;
16246;SDS011;8231;50.866;7.944;2022-11-20T08:28:28;23.57;;;13.23;;
16246;SDS011;8231;50.866;7.944;2022-11-20T08:30:57;24.77;;;14.60;;
16246;SDS011;8231;50.866;7.944;2022-11-20T08:33:27;29.80;;;14.53;;
16246;SDS011;8231;50.866;7.944;2022-11-20T08:35:58;22.90;;;13.27;;
16246;SDS011;8231;50.866;7.944;2022-11-20T08:38:27;24.47;;;12.67;;
16246;SDS011;8231;50.866;7.944;2022-11-20T08:40:56;23.27;;;13.57;;
16246;SDS011;8231;50.866;7.944;2022-11-20T08:43:43;18.67;;;12.33;;
16246;SDS011;8231;50.866;7.944;2022-11-20T08:46:11;25.83;;;13.40;;
16246;SDS011;8231;50.866;7.944;2022-11-20T08:48:40;19.90;;;12.57;;
16246;SDS011;8231;50.866;7.944;2022-11-20T08:51:08;18.73;;;12.67;;
16246;SDS011;8231;50.866;7.944;2022-11-20T08:53:37;20.40;;;12.50;;
16246;SDS011;8231;50.866;7.944;2022-11-20T08:56:06;22.10;;;12.00;;
16246;SDS011;8231;50.866;7.944;2022-11-20T08:58:36;19.53;;;11.17;;
16246;SDS011;8231;50.866;7.944;2022-11-20T09:01:25;23.20;;;12.07;;
16246;SDS011;8231;50.866;7.944;2022-11-20T09:03:54;16.17;;;10.70;;
16246;SDS011;8231;50.866;7.944;2022-11-20T09:06:23;18.03;;;11.67;;
16246;SDS011;8231;50.866;7.944;2022-11-20T09:08:51;20.48;;;10.45;;
16246;SDS011;8231;50.866;7.944;2022-11-20T09:11:20;18.38;;;11.05;;
16246;SDS011;8231;50.866;7.944;2022-11-20T09:13:48;23.97;;;12.20;;
16246;SDS011;8231;50.866;7.944;2022-11-20T09:16:17;20.00;;;11.43;;
16246;SDS011;8231;50.866;7.944;2022-11-20T09:18:46;14.38;;;10.10;;
16246;SDS011;8231;50.866;7.944;2022-11-20T09:21:37;19.07;;;10.80;;
16246;SDS011;8231;50.866;7.944;2022-11-20T09:24:05;13.60;;;9.02;;
16246;SDS011;8231;50.866;7.944;2022-11-20T09:26:34;14.85;;;9.10;;
16246;SDS011;8231;50.866;7.944;2022-11-20T09:29:02;15.40;;;10.73;;
16246;SDS011;8231;50.866;7.944;2022-11-20T09:31:30;12.60;;;9.57;;
16246;SDS011;8231;50.866;7.944;2022-11-20T09:33:59;19.60;;;11.57;;
16246;SDS011;8231;50.866;7.944;2022-11-20T09:36:27;15.23;;;9.70;;
16246;SDS011;8231;50.866;7.944;2022-11-20T09:38:56;10.15;;;7.28;;
16246;SDS011;8231;50.866;7.944;2022-11-20T09:41:34;14.82;;;8.73;;
16246;SDS011;8231;50.866;7.944;2022-11-20T09:44:16;15.30;;;8.93;;
16246;SDS011;8231;50.866;7.944;2022-11-20T09:46:55;14.10;;;8.15;;
16246;SDS011;8231;50.866;7.944;2022-11-20T09:49:32;15.13;;;9.07;;
16246;SDS011;8231;50.866;7.944;2022-11-20T09:52:11;11.15;;;7.90;;
16246;SDS011;8231;50.866;7.944;2022-11-20T09:54:47;11.13;;;7.88;;
16246;SDS011;8231;50.866;7.944;2022-11-20T09:57:18;14.75;;;9.48;;
16246;SDS011;8231;50.866;7.944;2022-11-20T09:59:50;16.67;;;9.90;;
16246;SDS011;8231;50.866;7.944;2022-11-20T10:02:26;11.65;;;7.97;;
16246;SDS011;8231;50.866;7.944;2022-11-20T10:05:01;12.40;;;8.83;;
16246;SDS011;8231;50.866;7.944;2022-11-20T10:07:36;13.05;;;9.25;;
16246;SDS011;8231;50.866;7.944;2022-11-20T10:10:13;15.07;;;9.10;;
16246;SDS011;8231;50.866;7.944;2022-11-20T10:12:48;14.43;;;9.85;;
16246;SDS011;8231;50.866;7.944;2022-11-20T10:15:31;13.20;;;8.93;;
16246;SDS011;8231;50.866;7.944;2022-11-20T10:18:09;16.45;;;9.35;;
16246;SDS011;8231;50.866;7.944;2022-11-20T10:20:50;16.75;;;10.30;;
16246;SDS011;8231;50.866;7.944;2022-11-20T10:23:28;13.50;;;9.15;;
16246;SDS011;8231;50.866;7.944;2022-11-20T10:26:07;14.48;;;9.00;;
16246;SDS011;8231;50.866;7.944;2022-11-20T10:28:47;14.18;;;8.85;;
16246;SDS011;8231;50.866;7.944;2022-11-20T10:31:34;14.07;;;8.52;;
16246;SDS011;8231;50.866;7.944;2022-11-20T10:34:06;14.18;;;9.63;;
16246;SDS011;8231;50.866;7.944;2022-11-20T10:36:50;13.13;;;8.95;;
16246;SDS011;8231;50.866;7.944;2022-11-20T10:39:25;11.40;;;8.52;;
16246;SDS011;8231;50.866;7.944;2022-11-20T10:42:00;12.98;;;9.55;;
16246;SDS011;8231;50.866;7.944;2022-11-20T10:44:29;12.63;;;8.40;;
16246;SDS011;8231;50.866;7.944;2022-11-20T10:47:21;14.88;;;9.35;;
16246;SDS011;8231;50.866;7.944;2022-11-20T10:49:51;13.05;;;8.98;;
16246;SDS011;8231;50.866;7.944;2022-11-20T10:52:23;12.07;;;9.05;;
16246;SDS011;8231;50.866;7.944;2022-11-20T10:55:05;12.52;;;8.85;;
16246;SDS011;8231;50.866;7.944;2022-11-20T10:57:46;15.43;;;11.05;;
16246;SDS011;8231;50.866;7.944;2022-11-20T11:00:21;12.65;;;8.50;;
16246;SDS011;8231;50.866;7.944;2022-11-20T11:02:50;14.70;;;9.75;;
16246;SDS011;8231;50.866;7.944;2022-11-20T11:05:24;16.48;;;9.90;;
16246;SDS011;8231;50.866;7.944;2022-11-20T11:08:02;17.80;;;9.90;;
16246;SDS011;8231;50.866;7.944;2022-11-20T11:10:34;12.40;;;9.35;;
16246;SDS011;8231;50.866;7.944;2022-11-20T11:13:07;22.20;;;15.00;;
16246;SDS011;8231;50.866;7.944;2022-11-20T11:15:47;23.00;;;14.93;;
16246;SDS011;8231;50.866;7.944;2022-11-20T11:18:22;19.77;;;11.50;;
16246;SDS011;8231;50.866;7.944;2022-11-20T11:20:52;20.27;;;14.02;;
16246;SDS011;8231;50.866;7.944;2022-11-20T11:23:28;15.25;;;10.30;;
16246;SDS011;8231;50.866;7.944;2022-11-20T11:25:59;16.08;;;9.60;;
16246;SDS011;8231;50.866;7.944;2022-11-20T11:28:28;13.57;;;8.57;;
16246;SDS011;8231;50.866;7.944;2022-11-20T11:30:56;14.65;;;10.65;;
16246;SDS011;8231;50.866;7.944;2022-11-20T11:33:25;14.57;;;9.65;;
16246;SDS011;8231;50.866;7.944;2022-11-20T11:35:55;12.75;;;9.70;;
16246;SDS011;8231;50.866;7.944;2022-11-20T11:38:28;18.45;;;11.30;;
16246;SDS011;8231;50.866;7.944;2022-11-20T11:41:00;19.20;;;13.13;;
16246;SDS011;8231;50.866;7.944;2022-11-20T11:43:31;15.50;;;11.00;;
16246;SDS011;8231;50.866;7.944;2022-11-20T11:46:26;17.33;;;11.38;;
16246;SDS011;8231;50.866;7.944;2022-11-20T11:48:58;17.05;;;11.88;;
16246;SDS011;8231;50.866;7.944;2022-11-20T11:51:29;21.02;;;12.13;;
16246;SDS011;8231;50.866;7.944;2022-11-20T11:54:05;18.80;;;11.93;;
16246;SDS011;8231;50.866;7.944;2022-11-20T11:56:42;19.02;;;11.52;;
16246;SDS011;8231;50.866;7.944;2022-11-20T11:59:11;17.40;;;11.07;;
16246;SDS011;8231;50.866;7.944;2022-11-20T12:01:47;16.08;;;9.73;;
16246;SDS011;8231;50.866;7.944;2022-11-20T12:04:21;17.80;;;11.80;;
16246;SDS011;8231;50.866;7.944;2022-11-20T12:07:03;19.27;;;11.93;;
16246;SDS011;8231;50.866;7.944;2022-11-20T12:10:00;18.42;;;11.52;;
16246;SDS011;8231;50.866;7.944;2022-11-20T12:12:31;15.30;;;10.35;;
16246;SDS011;8231;50.866;7.944;2022-11-20T12:15:06;15.63;;;10.68;;
16246;SDS011;8231;50.866;7.944;2022-11-20T12:17:38;15.48;;;9.50;;
16246;SDS011;8231;50.866;7.944;2022-11-20T12:20:10;16.02;;;8.98;;
16246;SDS011;8231;50.866;7.944;2022-11-20T12:22:41;15.13;;;9.90;;
16246;SDS011;8231;50.866;7.944;2022-11-20T12:25:19;24.23;;;12.00;;
16246;SDS011;8231;50.866;7.944;2022-11-20T12:30:59;16.35;;;11.45;;
16246;SDS011;8231;50.866;7.944;2022-11-20T12:33:43;20.02;;;11.50;;
16246;SDS011;8231;50.866;7.944;2022-11-20T12:36:25;17.73;;;10.88;;
16246;SDS011;8231;50.866;7.944;2022-11-20T12:39:07;21.05;;;12.20;;
16246;SDS011;8231;50.866;7.944;2022-11-20T12:41:58;18.10;;;11.35;;
16246;SDS011;8231;50.866;7.944;2022-11-20T12:45:17;17.30;;;10.50;;
16246;SDS011;8231;50.866;7.944;2022-11-20T12:48:31;15.18;;;9.98;;
16246;SDS011;8231;50.866;7.944;2022-11-20T12:51:15;17.20;;;10.63;;
16246;SDS011;8231;50.866;7.944;2022-11-20T12:54:11;17.70;;;10.80;;
16246;SDS011;8231;50.866;7.944;2022-11-20T12:57:06;17.88;;;12.32;;
16246;SDS011;8231;50.866;7.944;2022-11-20T12:59:48;20.83;;;12.48;;
16246;SDS011;8231;50.866;7.944;2022-11-20T13:02:30;18.42;;;11.45;;
16246;SDS011;8231;50.866;7.944;2022-11-20T13:05:08;17.23;;;11.65;;
16246;SDS011;8231;50.866;7.944;2022-11-20T13:07:50;19.38;;;11.40;;
16246;SDS011;8231;50.866;7.944;2022-11-20T13:10:21;19.67;;;11.98;;
16246;SDS011;8231;50.866;7.944;2022-11-20T13:12:56;15.10;;;10.63;;
16246;SDS011;8231;50.866;7.944;2022-11-20T13:15:35;20.48;;;12.05;;
16246;SDS011;8231;50.866;7.944;2022-11-20T13:18:12;19.45;;;12.85;;
16246;SDS011;8231;50.866;7.944;2022-11-20T13:20:42;21.25;;;13.02;;
16246;SDS011;8231;50.866;7.944;2022-11-20T13:23:11;20.83;;;12.60;;
16246;SDS011;8231;50.866;7.944;2022-11-20T13:25:50;19.88;;;12.88;;
16246;SDS011;8231;50.866;7.944;2022-11-20T13:28:31;22.30;;;14.45;;
16246;SDS011;8231;50.866;7.944;2022-11-20T13:30:59;22.83;;;13.90;;
16246;SDS011;8231;50.866;7.944;2022-11-20T13:33:29;23.58;;;14.52;;
16246;SDS011;8231;50.866;7.944;2022-11-20T13:35:59;21.80;;;13.85;;
16246;SDS011;8231;50.866;7.944;2022-11-20T13:38:39;23.08;;;13.32;;
16246;SDS011;8231;50.866;7.944;2022-11-20T13:41:11;23.98;;;13.80;;
16246;SDS011;8231;50.866;7.944;2022-11-20T13:44:12;27.98;;;17.92;;
16246;SDS011;8231;50.866;7.944;2022-11-20T13:46:42;30.33;;;17.70;;
16246;SDS011;8231;50.866;7.944;2022-11-20T13:49:17;25.88;;;16.17;;
16246;SDS011;8231;50.866;7.944;2022-11-20T13:51:49;26.23;;;16.30;;
16246;SDS011;8231;50.866;7.944;2022-11-20T13:54:27;21.15;;;14.38;;
16246;SDS011;8231;50.866;7.944;2022-11-20T13:57:30;26.80;;;15.75;;
16246;SDS011;8231;50.866;7.944;2022-11-20T14:00:11;25.88;;;16.50;;
16246;SDS011;8231;50.866;7.944;2022-11-20T14:02:42;25.80;;;14.52;;
16246;SDS011;8231;50.866;7.944;2022-11-20T14:05:15;27.10;;;16.55;;
16246;SDS011;8231;50.866;7.944;2022-11-20T14:07:47;24.67;;;15.90;;
16246;SDS011;8231;50.866;7.944;2022-11-20T14:10:21;27.38;;;15.35;;
16246;SDS011;8231;50.866;7.944;2022-11-20T14:12:57;25.40;;;15.93;;
16246;SDS011;8231;50.866;7.944;2022-11-20T14:15:28;25.23;;;15.07;;
16246;SDS011;8231;50.866;7.944;2022-11-20T14:17:57;26.20;;;15.70;;
16246;SDS011;8231;50.866;7.944;2022-11-20T14:20:26;28.10;;;17.35;;
16246;SDS011;8231;50.866;7.944;2022-11-20T14:22:57;27.35;;;17.27;;
16246;SDS011;8231;50.866;7.944;2022-11-20T14:25:25;31.67;;;19.40;;
16246;SDS011;8231;50.866;7.944;2022-11-20T14:27:54;30.05;;;16.58;;
16246;SDS011;8231;50.866;7.944;2022-11-20T14:30:25;28.50;;;17.45;;
16246;SDS011;8231;50.866;7.944;2022-11-20T14:32:56;25.05;;;15.18;;
16246;SDS011;8231;50.866;7.944;2022-11-20T14:35:28;26.58;;;15.98;;
16246;SDS011;8231;50.866;7.944;2022-11-20T14:37:58;22.65;;;15.38;;
16246;SDS011;8231;50.866;7.944;2022-11-20T14:40:28;31.63;;;19.20;;
16246;SDS011;8231;50.866;7.944;2022-11-20T14:42:57;27.15;;;17.88;;
16246;SDS011;8231;50.866;7.944;2022-11-20T14:45:26;25.50;;;15.70;;
16246;SDS011;8231;50.866;7.944;2022-11-20T14:47:56;28.67;;;18.40;;
16246;SDS011;8231;50.866;7.944;2022-11-20T14:50:28;22.25;;;14.68;;
16246;SDS011;8231;50.866;7.944;2022-11-20T14:52:57;27.50;;;16.42;;
16246;SDS011;8231;50.866;7.944;2022-11-20T14:55:27;30.08;;;15.75;;
16246;SDS011;8231;50.866;7.944;2022-11-20T14:57:57;28.25;;;15.30;;
16246;SDS011;8231;50.866;7.944;2022-11-20T15:00:27;26.60;;;14.35;;
16246;SDS011;8231;50.866;7.944;2022-11-20T15:02:57;22.60;;;14.23;;
16246;SDS011;8231;50.866;7.944;2022-11-20T15:05:26;25.88;;;15.35;;
16246;SDS011;8231;50.866;7.944;2022-11-20T15:08:12;27.30;;;16.25;;